首页
METAR-TAF:

METAR-TAF

机场 :

阿德萊德機場

阿德莱德, 澳大利亚

纬度: 34-56S, 经度: 138-31E, 海拔: 6米

当前天气观测

该预报发布于28分钟前的15:30 UTC
风速12节,风向
温度 24°C
湿度 47%
气压 1009 hPa
能见度10公里或以上
1500米以下无云,无积雨云

METAR: YPAD 081530Z 10006KT CAVOK 24/12 Q1009 FM1800 36012KT CAVOK

时间: 02:28 (15:58 UTC)

预报

该预报发布于4小时和55分钟前的11:03 UTC
预报有效从08日的 12点(UTC)到 09日的 18点(UTC)
风速10节,风向东北
能见度10公里或以上
1500米以下无云,无积雨云
从 08日的 1800点(UTC)
风速12节,风向
能见度10公里或以上
1500米以下无云,无积雨云
从 08日的 2300点(UTC)
风速14节,风向西转西南
能见度10公里或以上
1500米以下无云,无积雨云
从 09日的 0600点(UTC)
风速17节,风向南转西南
能见度10公里或以上
1500米以下无云,无积雨云
从 09日的 1200点(UTC)
风速10节,风向
能见度10公里或以上
1500米以下无云,无积雨云

TAF: YPAD 081103Z 0812/0918 05010KT CAVOK FM081800 36012KT CAVOK FM082300 24014KT CAVOK FM090600 21017KT CAVOK FM091200 17010KT CAVOK

超过4000个机场的气象观测和天气预报(METAR&TAF报告)。

可查询的气象台以黄色和红色小点在地图上表示。

将鼠标移到小点上方,可查看气象台名称。

然后点击查看天气观测和预报。

如需切换地图:点击带黑十字的绿色按钮放大地图;点击带横线的绿色按钮缩小地图;或者点击绿色箭头查看邻近地区的地图。


METAR-TAF: